Current Weather

Southwest Michigan Rgnl

Benton Harbor, Michigan (KBEH)

Report from: Tuesday, July 16, 2024 9:53 AM EDT
Current time: Tuesday, July 16, 2024 11:02 AM EDT

Nearby weather – Weather history – Daily summaries
Weather forecast

Temperature25.6°C (78.1°F)
Dew point20.0°C (68.0°F)
Winds 11 kts (5.7 m/s, 12.7 mph) Southwest (230°)
Visibility10 mi. (16.1 km)
Clouds Sky clear
Altimeter29.81 in.Hg (1009 mB)
Relative humidity71 %
Density altitude1,686 ft. (514 m)
Sea-level pressure100.9 kPa (1009 mB, 29.80 in.Hg)
Remarks Fully automated report
Automated weather observing station with precipitation discriminator
Flight conditions Visual Meteorological Conditions
Raw dataKBEH 161353Z AUTO 23011KT 10SM CLR 26/20 A2981 RMK AO2 SLP090 T02560200
An error has occurred. This application may no longer respond until reloaded. Reload 🗙